sensor_id;sensor_type;location;lat;lon;timestamp;P1;durP1;ratioP1;P2;durP2;ratioP2
4569;SDS011;2297;51.442;6.996;2023-08-07T00:01:34;5.15;;;3.03;;
4569;SDS011;2297;51.442;6.996;2023-08-07T00:04:01;4.90;;;3.28;;
4569;SDS011;2297;51.442;6.996;2023-08-07T00:06:29;6.18;;;2.95;;
4569;SDS011;2297;51.442;6.996;2023-08-07T00:08:56;5.88;;;3.55;;
4569;SDS011;2297;51.442;6.996;2023-08-07T00:11:22;8.15;;;3.72;;
4569;SDS011;2297;51.442;6.996;2023-08-07T00:13:51;6.85;;;3.58;;
4569;SDS011;2297;51.442;6.996;2023-08-07T00:16:17;8.63;;;4.55;;
4569;SDS011;2297;51.442;6.996;2023-08-07T00:18:44;9.90;;;3.97;;
4569;SDS011;2297;51.442;6.996;2023-08-07T00:21:11;8.90;;;4.60;;
4569;SDS011;2297;51.442;6.996;2023-08-07T00:23:39;11.85;;;5.43;;
4569;SDS011;2297;51.442;6.996;2023-08-07T00:26:05;12.60;;;5.40;;
4569;SDS011;2297;51.442;6.996;2023-08-07T00:28:32;7.95;;;4.72;;
4569;SDS011;2297;51.442;6.996;2023-08-07T00:31:00;6.32;;;4.85;;
4569;SDS011;2297;51.442;6.996;2023-08-07T00:33:27;12.93;;;5.10;;
4569;SDS011;2297;51.442;6.996;2023-08-07T00:35:53;9.02;;;5.43;;
4569;SDS011;2297;51.442;6.996;2023-08-07T00:38:20;8.93;;;4.90;;
4569;SDS011;2297;51.442;6.996;2023-08-07T00:40:48;9.02;;;4.32;;
4569;SDS011;2297;51.442;6.996;2023-08-07T00:43:14;12.65;;;4.07;;
4569;SDS011;2297;51.442;6.996;2023-08-07T00:45:42;8.35;;;3.75;;
4569;SDS011;2297;51.442;6.996;2023-08-07T00:48:10;10.55;;;3.45;;
4569;SDS011;2297;51.442;6.996;2023-08-07T00:50:37;8.45;;;3.83;;
4569;SDS011;2297;51.442;6.996;2023-08-07T00:53:05;8.57;;;3.85;;
4569;SDS011;2297;51.442;6.996;2023-08-07T00:55:33;7.38;;;3.75;;
4569;SDS011;2297;51.442;6.996;2023-08-07T00:58:01;8.70;;;3.30;;
4569;SDS011;2297;51.442;6.996;2023-08-07T01:00:28;7.60;;;3.30;;
4569;SDS011;2297;51.442;6.996;2023-08-07T01:02:55;8.75;;;4.07;;
4569;SDS011;2297;51.442;6.996;2023-08-07T01:05:22;7.65;;;4.07;;
4569;SDS011;2297;51.442;6.996;2023-08-07T01:07:50;12.00;;;4.72;;
4569;SDS011;2297;51.442;6.996;2023-08-07T01:10:19;9.50;;;4.78;;
4569;SDS011;2297;51.442;6.996;2023-08-07T01:12:52;11.38;;;4.35;;
4569;SDS011;2297;51.442;6.996;2023-08-07T01:18:21;7.85;;;3.78;;
4569;SDS011;2297;51.442;6.996;2023-08-07T01:20:48;10.45;;;4.03;;
4569;SDS011;2297;51.442;6.996;2023-08-07T01:23:16;8.50;;;3.55;;
4569;SDS011;2297;51.442;6.996;2023-08-07T01:28:42;8.40;;;3.15;;
4569;SDS011;2297;51.442;6.996;2023-08-07T01:31:14;7.80;;;3.47;;
4569;SDS011;2297;51.442;6.996;2023-08-07T01:33:47;9.98;;;3.90;;
4569;SDS011;2297;51.442;6.996;2023-08-07T01:36:20;12.38;;;4.20;;
4569;SDS011;2297;51.442;6.996;2023-08-07T01:38:50;8.43;;;4.15;;
4569;SDS011;2297;51.442;6.996;2023-08-07T01:41:20;8.80;;;3.70;;
4569;SDS011;2297;51.442;6.996;2023-08-07T01:43:47;8.20;;;3.72;;
4569;SDS011;2297;51.442;6.996;2023-08-07T01:49:11;11.07;;;4.15;;
4569;SDS011;2297;51.442;6.996;2023-08-07T01:51:37;6.78;;;3.55;;
4569;SDS011;2297;51.442;6.996;2023-08-07T01:59:46;6.57;;;3.78;;
4569;SDS011;2297;51.442;6.996;2023-08-07T02:02:30;6.65;;;3.55;;
4569;SDS011;2297;51.442;6.996;2023-08-07T02:04:57;8.05;;;3.75;;
4569;SDS011;2297;51.442;6.996;2023-08-07T02:07:24;6.57;;;2.80;;
4569;SDS011;2297;51.442;6.996;2023-08-07T02:09:52;5.95;;;3.10;;
4569;SDS011;2297;51.442;6.996;2023-08-07T02:12:18;5.82;;;2.85;;
4569;SDS011;2297;51.442;6.996;2023-08-07T02:14:45;5.53;;;2.80;;
4569;SDS011;2297;51.442;6.996;2023-08-07T02:17:27;6.55;;;2.65;;
4569;SDS011;2297;51.442;6.996;2023-08-07T02:20:04;4.60;;;3.03;;
4569;SDS011;2297;51.442;6.996;2023-08-07T02:22:32;7.18;;;2.90;;
4569;SDS011;2297;51.442;6.996;2023-08-07T02:25:00;5.32;;;2.50;;
4569;SDS011;2297;51.442;6.996;2023-08-07T02:27:26;5.32;;;2.67;;
4569;SDS011;2297;51.442;6.996;2023-08-07T02:29:53;5.28;;;2.70;;
4569;SDS011;2297;51.442;6.996;2023-08-07T02:32:19;4.07;;;2.55;;
4569;SDS011;2297;51.442;6.996;2023-08-07T02:34:46;3.53;;;2.40;;
4569;SDS011;2297;51.442;6.996;2023-08-07T02:37:13;5.40;;;2.72;;
4569;SDS011;2297;51.442;6.996;2023-08-07T02:39:41;6.22;;;3.05;;
4569;SDS011;2297;51.442;6.996;2023-08-07T02:42:09;4.80;;;3.00;;
4569;SDS011;2297;51.442;6.996;2023-08-07T02:44:36;8.25;;;3.85;;
4569;SDS011;2297;51.442;6.996;2023-08-07T02:47:03;6.90;;;3.53;;
4569;SDS011;2297;51.442;6.996;2023-08-07T02:49:30;12.70;;;4.38;;
4569;SDS011;2297;51.442;6.996;2023-08-07T02:51:56;8.43;;;4.82;;
4569;SDS011;2297;51.442;6.996;2023-08-07T02:54:23;10.18;;;5.28;;
4569;SDS011;2297;51.442;6.996;2023-08-07T02:56:50;13.20;;;6.47;;
4569;SDS011;2297;51.442;6.996;2023-08-07T02:59:18;9.13;;;4.65;;
4569;SDS011;2297;51.442;6.996;2023-08-07T03:01:45;7.50;;;4.00;;
4569;SDS011;2297;51.442;6.996;2023-08-07T03:04:11;8.32;;;4.20;;
4569;SDS011;2297;51.442;6.996;2023-08-07T03:06:38;6.55;;;3.85;;
4569;SDS011;2297;51.442;6.996;2023-08-07T03:09:05;10.32;;;4.20;;
4569;SDS011;2297;51.442;6.996;2023-08-07T03:11:31;6.93;;;4.15;;
4569;SDS011;2297;51.442;6.996;2023-08-07T03:13:58;6.03;;;4.32;;
4569;SDS011;2297;51.442;6.996;2023-08-07T03:16:26;6.75;;;4.00;;
4569;SDS011;2297;51.442;6.996;2023-08-07T03:18:52;12.45;;;3.90;;
4569;SDS011;2297;51.442;6.996;2023-08-07T03:21:19;7.38;;;4.28;;
4569;SDS011;2297;51.442;6.996;2023-08-07T03:23:46;10.93;;;5.18;;
4569;SDS011;2297;51.442;6.996;2023-08-07T03:26:12;9.13;;;4.50;;
4569;SDS011;2297;51.442;6.996;2023-08-07T03:28:40;7.55;;;4.40;;
4569;SDS011;2297;51.442;6.996;2023-08-07T03:31:06;11.63;;;5.05;;
4569;SDS011;2297;51.442;6.996;2023-08-07T03:33:34;11.68;;;4.88;;
4569;SDS011;2297;51.442;6.996;2023-08-07T03:36:01;9.35;;;4.68;;
4569;SDS011;2297;51.442;6.996;2023-08-07T03:38:28;15.75;;;4.82;;
4569;SDS011;2297;51.442;6.996;2023-08-07T03:41:12;15.02;;;4.70;;
4569;SDS011;2297;51.442;6.996;2023-08-07T03:43:39;12.57;;;5.95;;
4569;SDS011;2297;51.442;6.996;2023-08-07T03:46:06;12.38;;;5.80;;
4569;SDS011;2297;51.442;6.996;2023-08-07T03:48:32;15.30;;;5.95;;
4569;SDS011;2297;51.442;6.996;2023-08-07T03:51:04;12.85;;;5.50;;
4569;SDS011;2297;51.442;6.996;2023-08-07T03:53:33;11.43;;;5.40;;
4569;SDS011;2297;51.442;6.996;2023-08-07T03:55:59;13.48;;;6.03;;
4569;SDS011;2297;51.442;6.996;2023-08-07T03:58:26;16.95;;;5.70;;
4569;SDS011;2297;51.442;6.996;2023-08-07T04:03:58;14.55;;;5.40;;
4569;SDS011;2297;51.442;6.996;2023-08-07T04:06:24;9.35;;;4.60;;
4569;SDS011;2297;51.442;6.996;2023-08-07T04:08:52;13.73;;;5.50;;
4569;SDS011;2297;51.442;6.996;2023-08-07T04:11:18;14.02;;;5.10;;
4569;SDS011;2297;51.442;6.996;2023-08-07T04:13:45;13.77;;;4.43;;
4569;SDS011;2297;51.442;6.996;2023-08-07T04:16:24;11.35;;;4.15;;
4569;SDS011;2297;51.442;6.996;2023-08-07T04:18:50;13.52;;;4.97;;
4569;SDS011;2297;51.442;6.996;2023-08-07T04:21:20;18.60;;;5.10;;
4569;SDS011;2297;51.442;6.996;2023-08-07T04:23:49;11.55;;;3.95;;
4569;SDS011;2297;51.442;6.996;2023-08-07T04:26:16;11.30;;;4.30;;
4569;SDS011;2297;51.442;6.996;2023-08-07T04:28:42;9.77;;;4.43;;
4569;SDS011;2297;51.442;6.996;2023-08-07T04:31:09;14.88;;;5.10;;
4569;SDS011;2297;51.442;6.996;2023-08-07T04:33:36;10.98;;;4.63;;
4569;SDS011;2297;51.442;6.996;2023-08-07T04:36:03;9.07;;;4.00;;
4569;SDS011;2297;51.442;6.996;2023-08-07T04:38:31;11.75;;;4.20;;
4569;SDS011;2297;51.442;6.996;2023-08-07T04:44:01;20.13;;;5.35;;
4569;SDS011;2297;51.442;6.996;2023-08-07T04:46:28;8.77;;;3.55;;
4569;SDS011;2297;51.442;6.996;2023-08-07T04:48:55;15.88;;;4.88;;
4569;SDS011;2297;51.442;6.996;2023-08-07T04:51:21;11.75;;;4.00;;
4569;SDS011;2297;51.442;6.996;2023-08-07T04:53:50;10.35;;;3.17;;
4569;SDS011;2297;51.442;6.996;2023-08-07T04:59:19;9.93;;;3.35;;
4569;SDS011;2297;51.442;6.996;2023-08-07T05:01:46;22.63;;;4.93;;
4569;SDS011;2297;51.442;6.996;2023-08-07T05:04:13;12.63;;;3.53;;
4569;SDS011;2297;51.442;6.996;2023-08-07T05:06:39;13.60;;;3.63;;
4569;SDS011;2297;51.442;6.996;2023-08-07T05:09:07;10.23;;;3.38;;
4569;SDS011;2297;51.442;6.996;2023-08-07T05:11:34;8.05;;;3.10;;
4569;SDS011;2297;51.442;6.996;2023-08-07T05:14:01;15.38;;;3.58;;
4569;SDS011;2297;51.442;6.996;2023-08-07T05:25:47;14.93;;;3.78;;
4569;SDS011;2297;51.442;6.996;2023-08-07T05:28:14;8.68;;;3.22;;
4569;SDS011;2297;51.442;6.996;2023-08-07T05:30:59;13.93;;;3.05;;
4569;SDS011;2297;51.442;6.996;2023-08-07T05:33:25;14.35;;;4.25;;
4569;SDS011;2297;51.442;6.996;2023-08-07T05:35:52;11.27;;;3.78;;
4569;SDS011;2297;51.442;6.996;2023-08-07T05:38:20;12.05;;;4.30;;
4569;SDS011;2297;51.442;6.996;2023-08-07T05:40:48;13.02;;;4.00;;
4569;SDS011;2297;51.442;6.996;2023-08-07T05:43:16;9.77;;;3.78;;
4569;SDS011;2297;51.442;6.996;2023-08-07T05:45:43;7.65;;;3.15;;
4569;SDS011;2297;51.442;6.996;2023-08-07T05:48:11;6.47;;;2.80;;
4569;SDS011;2297;51.442;6.996;2023-08-07T05:50:38;7.65;;;3.03;;
4569;SDS011;2297;51.442;6.996;2023-08-07T05:53:04;6.85;;;4.15;;
4569;SDS011;2297;51.442;6.996;2023-08-07T05:55:31;12.32;;;4.72;;
4569;SDS011;2297;51.442;6.996;2023-08-07T05:57:59;11.00;;;4.20;;
4569;SDS011;2297;51.442;6.996;2023-08-07T06:00:26;9.65;;;4.47;;
4569;SDS011;2297;51.442;6.996;2023-08-07T06:02:53;8.32;;;4.18;;
4569;SDS011;2297;51.442;6.996;2023-08-07T06:05:20;12.63;;;4.47;;
4569;SDS011;2297;51.442;6.996;2023-08-07T06:10:32;11.05;;;5.00;;
4569;SDS011;2297;51.442;6.996;2023-08-07T06:13:00;11.80;;;4.47;;
4569;SDS011;2297;51.442;6.996;2023-08-07T06:15:26;11.93;;;5.18;;
4569;SDS011;2297;51.442;6.996;2023-08-07T06:17:54;12.60;;;5.28;;
4569;SDS011;2297;51.442;6.996;2023-08-07T06:20:20;11.43;;;5.38;;
4569;SDS011;2297;51.442;6.996;2023-08-07T06:22:47;12.68;;;5.53;;
4569;SDS011;2297;51.442;6.996;2023-08-07T06:25:15;12.23;;;4.43;;
4569;SDS011;2297;51.442;6.996;2023-08-07T06:27:42;10.82;;;5.07;;
4569;SDS011;2297;51.442;6.996;2023-08-07T06:30:10;16.58;;;4.70;;
4569;SDS011;2297;51.442;6.996;2023-08-07T06:32:39;12.00;;;5.70;;
4569;SDS011;2297;51.442;6.996;2023-08-07T06:35:05;11.73;;;6.18;;
4569;SDS011;2297;51.442;6.996;2023-08-07T06:37:32;12.02;;;5.97;;
4569;SDS011;2297;51.442;6.996;2023-08-07T06:39:59;16.05;;;5.78;;
4569;SDS011;2297;51.442;6.996;2023-08-07T06:42:26;12.27;;;5.43;;
4569;SDS011;2297;51.442;6.996;2023-08-07T06:44:53;16.25;;;6.70;;
4569;SDS011;2297;51.442;6.996;2023-08-07T06:47:21;8.27;;;4.88;;
4569;SDS011;2297;51.442;6.996;2023-08-07T06:49:47;9.93;;;5.93;;
4569;SDS011;2297;51.442;6.996;2023-08-07T06:52:14;11.55;;;4.88;;
4569;SDS011;2297;51.442;6.996;2023-08-07T06:54:41;9.18;;;4.60;;
4569;SDS011;2297;51.442;6.996;2023-08-07T06:57:07;7.57;;;4.00;;
4569;SDS011;2297;51.442;6.996;2023-08-07T06:59:34;10.80;;;4.00;;
4569;SDS011;2297;51.442;6.996;2023-08-07T07:02:01;8.55;;;4.03;;
4569;SDS011;2297;51.442;6.996;2023-08-07T07:04:29;8.48;;;4.68;;
4569;SDS011;2297;51.442;6.996;2023-08-07T07:06:55;11.82;;;4.32;;
4569;SDS011;2297;51.442;6.996;2023-08-07T07:09:22;12.45;;;4.55;;
4569;SDS011;2297;51.442;6.996;2023-08-07T07:11:48;14.18;;;5.25;;
4569;SDS011;2297;51.442;6.996;2023-08-07T07:14:15;12.88;;;4.63;;
4569;SDS011;2297;51.442;6.996;2023-08-07T07:16:42;12.02;;;4.25;;
4569;SDS011;2297;51.442;6.996;2023-08-07T07:19:08;9.57;;;4.60;;
4569;SDS011;2297;51.442;6.996;2023-08-07T07:21:36;9.52;;;4.93;;
4569;SDS011;2297;51.442;6.996;2023-08-07T07:24:03;10.63;;;5.07;;
4569;SDS011;2297;51.442;6.996;2023-08-07T07:26:31;11.13;;;4.78;;
4569;SDS011;2297;51.442;6.996;2023-08-07T07:28:58;9.90;;;4.57;;
4569;SDS011;2297;51.442;6.996;2023-08-07T07:31:24;12.63;;;4.47;;
4569;SDS011;2297;51.442;6.996;2023-08-07T07:33:51;9.95;;;4.53;;
4569;SDS011;2297;51.442;6.996;2023-08-07T07:36:18;9.90;;;4.53;;
4569;SDS011;2297;51.442;6.996;2023-08-07T07:38:46;11.07;;;4.90;;
4569;SDS011;2297;51.442;6.996;2023-08-07T07:41:14;13.48;;;5.70;;
4569;SDS011;2297;51.442;6.996;2023-08-07T07:43:40;10.75;;;5.20;;
4569;SDS011;2297;51.442;6.996;2023-08-07T07:46:07;10.63;;;5.22;;
4569;SDS011;2297;51.442;6.996;2023-08-07T07:48:34;12.23;;;5.22;;
4569;SDS011;2297;51.442;6.996;2023-08-07T07:51:16;10.13;;;5.35;;
4569;SDS011;2297;51.442;6.996;2023-08-07T07:53:43;10.10;;;5.20;;
4569;SDS011;2297;51.442;6.996;2023-08-07T07:56:11;7.57;;;4.70;;
4569;SDS011;2297;51.442;6.996;2023-08-07T07:58:37;9.80;;;4.40;;
4569;SDS011;2297;51.442;6.996;2023-08-07T08:01:21;12.23;;;5.10;;
4569;SDS011;2297;51.442;6.996;2023-08-07T08:03:48;8.07;;;4.82;;
4569;SDS011;2297;51.442;6.996;2023-08-07T08:06:15;8.57;;;4.75;;
4569;SDS011;2297;51.442;6.996;2023-08-07T08:08:41;7.32;;;4.75;;
4569;SDS011;2297;51.442;6.996;2023-08-07T08:11:08;17.98;;;5.88;;
4569;SDS011;2297;51.442;6.996;2023-08-07T08:13:36;12.70;;;5.95;;
4569;SDS011;2297;51.442;6.996;2023-08-07T08:16:04;14.95;;;5.50;;
4569;SDS011;2297;51.442;6.996;2023-08-07T08:18:31;12.00;;;5.60;;
4569;SDS011;2297;51.442;6.996;2023-08-07T08:20:58;9.75;;;4.80;;
4569;SDS011;2297;51.442;6.996;2023-08-07T08:23:24;10.75;;;4.75;;
4569;SDS011;2297;51.442;6.996;2023-08-07T08:25:51;13.00;;;4.82;;
4569;SDS011;2297;51.442;6.996;2023-08-07T08:28:18;11.63;;;4.88;;
4569;SDS011;2297;51.442;6.996;2023-08-07T08:30:46;10.88;;;4.57;;
4569;SDS011;2297;51.442;6.996;2023-08-07T08:33:12;11.40;;;5.32;;
4569;SDS011;2297;51.442;6.996;2023-08-07T08:35:39;12.38;;;5.57;;
4569;SDS011;2297;51.442;6.996;2023-08-07T08:38:06;9.88;;;4.50;;
4569;SDS011;2297;51.442;6.996;2023-08-07T08:40:33;13.05;;;5.30;;
4569;SDS011;2297;51.442;6.996;2023-08-07T08:43:01;8.43;;;4.32;;
4569;SDS011;2297;51.442;6.996;2023-08-07T08:45:43;11.60;;;5.15;;
4569;SDS011;2297;51.442;6.996;2023-08-07T08:48:13;9.77;;;4.65;;
4569;SDS011;2297;51.442;6.996;2023-08-07T08:50:46;12.30;;;5.55;;
4569;SDS011;2297;51.442;6.996;2023-08-07T08:53:15;11.20;;;5.70;;
4569;SDS011;2297;51.442;6.996;2023-08-07T08:55:42;14.82;;;5.50;;
4569;SDS011;2297;51.442;6.996;2023-08-07T08:58:12;13.20;;;4.95;;
4569;SDS011;2297;51.442;6.996;2023-08-07T09:00:41;10.60;;;4.47;;
4569;SDS011;2297;51.442;6.996;2023-08-07T09:03:09;11.07;;;4.30;;
4569;SDS011;2297;51.442;6.996;2023-08-07T09:05:36;9.57;;;4.00;;
4569;SDS011;2297;51.442;6.996;2023-08-07T09:08:03;12.55;;;4.25;;
4569;SDS011;2297;51.442;6.996;2023-08-07T09:10:31;9.80;;;4.18;;
4569;SDS011;2297;51.442;6.996;2023-08-07T09:13:00;9.90;;;4.22;;
4569;SDS011;2297;51.442;6.996;2023-08-07T09:15:29;11.27;;;3.55;;
4569;SDS011;2297;51.442;6.996;2023-08-07T09:17:57;13.20;;;4.50;;
4569;SDS011;2297;51.442;6.996;2023-08-07T09:20:25;13.45;;;4.63;;
4569;SDS011;2297;51.442;6.996;2023-08-07T09:22:53;15.55;;;4.20;;
4569;SDS011;2297;51.442;6.996;2023-08-07T09:25:26;7.03;;;3.45;;
4569;SDS011;2297;51.442;6.996;2023-08-07T09:27:54;15.15;;;5.07;;
4569;SDS011;2297;51.442;6.996;2023-08-07T09:30:23;15.88;;;5.28;;
4569;SDS011;2297;51.442;6.996;2023-08-07T09:32:52;10.50;;;4.40;;
4569;SDS011;2297;51.442;6.996;2023-08-07T09:35:20;8.98;;;4.03;;
4569;SDS011;2297;51.442;6.996;2023-08-07T09:37:49;11.93;;;3.92;;
4569;SDS011;2297;51.442;6.996;2023-08-07T09:40:16;12.32;;;5.15;;
4569;SDS011;2297;51.442;6.996;2023-08-07T09:42:43;12.52;;;4.47;;
4569;SDS011;2297;51.442;6.996;2023-08-07T09:45:20;11.57;;;4.15;;
4569;SDS011;2297;51.442;6.996;2023-08-07T09:47:56;10.75;;;4.32;;
4569;SDS011;2297;51.442;6.996;2023-08-07T09:50:24;8.55;;;3.35;;
4569;SDS011;2297;51.442;6.996;2023-08-07T09:52:53;10.75;;;3.72;;
4569;SDS011;2297;51.442;6.996;2023-08-07T09:55:20;11.10;;;3.50;;
4569;SDS011;2297;51.442;6.996;2023-08-07T09:57:47;10.43;;;3.03;;
4569;SDS011;2297;51.442;6.996;2023-08-07T10:00:15;11.82;;;3.90;;
4569;SDS011;2297;51.442;6.996;2023-08-07T10:02:45;7.97;;;3.80;;
4569;SDS011;2297;51.442;6.996;2023-08-07T10:05:12;13.93;;;4.45;;
4569;SDS011;2297;51.442;6.996;2023-08-07T10:07:39;8.65;;;5.03;;
4569;SDS011;2297;51.442;6.996;2023-08-07T10:10:08;10.88;;;4.30;;
4569;SDS011;2297;51.442;6.996;2023-08-07T10:12:36;11.65;;;4.35;;
4569;SDS011;2297;51.442;6.996;2023-08-07T10:15:03;10.85;;;4.70;;
4569;SDS011;2297;51.442;6.996;2023-08-07T10:17:31;10.32;;;4.70;;
4569;SDS011;2297;51.442;6.996;2023-08-07T10:19:58;13.75;;;5.10;;
4569;SDS011;2297;51.442;6.996;2023-08-07T10:22:25;12.73;;;5.00;;
4569;SDS011;2297;51.442;6.996;2023-08-07T10:24:53;10.27;;;4.13;;
4569;SDS011;2297;51.442;6.996;2023-08-07T10:27:24;13.27;;;4.57;;
4569;SDS011;2297;51.442;6.996;2023-08-07T10:29:52;17.73;;;4.50;;
4569;SDS011;2297;51.442;6.996;2023-08-07T10:32:23;9.10;;;3.67;;
4569;SDS011;2297;51.442;6.996;2023-08-07T10:34:51;11.68;;;3.85;;
4569;SDS011;2297;51.442;6.996;2023-08-07T10:37:31;17.38;;;4.75;;
4569;SDS011;2297;51.442;6.996;2023-08-07T10:40:05;11.02;;;3.50;;
4569;SDS011;2297;51.442;6.996;2023-08-07T10:45:23;9.77;;;3.28;;
4569;SDS011;2297;51.442;6.996;2023-08-07T10:47:57;11.90;;;3.88;;
4569;SDS011;2297;51.442;6.996;2023-08-07T10:50:28;12.52;;;4.25;;
4569;SDS011;2297;51.442;6.996;2023-08-07T10:52:55;12.38;;;4.30;;
4569;SDS011;2297;51.442;6.996;2023-08-07T10:55:22;14.70;;;4.40;;
4569;SDS011;2297;51.442;6.996;2023-08-07T10:57:49;10.30;;;4.35;;
4569;SDS011;2297;51.442;6.996;2023-08-07T11:00:18;12.63;;;4.47;;
4569;SDS011;2297;51.442;6.996;2023-08-07T11:02:51;8.95;;;4.05;;
4569;SDS011;2297;51.442;6.996;2023-08-07T11:05:18;17.45;;;5.07;;
4569;SDS011;2297;51.442;6.996;2023-08-07T11:07:45;14.63;;;4.82;;
4569;SDS011;2297;51.442;6.996;2023-08-07T11:10:13;15.77;;;4.78;;
4569;SDS011;2297;51.442;6.996;2023-08-07T11:12:41;19.35;;;5.90;;
4569;SDS011;2297;51.442;6.996;2023-08-07T11:15:11;13.40;;;4.68;;
4569;SDS011;2297;51.442;6.996;2023-08-07T11:17:40;17.63;;;4.80;;
4569;SDS011;2297;51.442;6.996;2023-08-07T11:20:07;14.63;;;4.95;;
4569;SDS011;2297;51.442;6.996;2023-08-07T11:25:25;14.00;;;4.90;;
4569;SDS011;2297;51.442;6.996;2023-08-07T11:27:53;17.98;;;5.72;;
4569;SDS011;2297;51.442;6.996;2023-08-07T11:30:20;20.58;;;5.68;;
4569;SDS011;2297;51.442;6.996;2023-08-07T11:32:48;14.18;;;5.25;;
4569;SDS011;2297;51.442;6.996;2023-08-07T11:38:37;20.00;;;5.53;;
4569;SDS011;2297;51.442;6.996;2023-08-07T11:44:22;8.57;;;3.53;;
4569;SDS011;2297;51.442;6.996;2023-08-07T11:46:49;10.20;;;3.42;;
4569;SDS011;2297;51.442;6.996;2023-08-07T11:49:17;7.75;;;3.30;;
4569;SDS011;2297;51.442;6.996;2023-08-07T11:51:46;8.82;;;3.45;;
4569;SDS011;2297;51.442;6.996;2023-08-07T11:54:13;6.80;;;3.00;;
4569;SDS011;2297;51.442;6.996;2023-08-07T11:56:41;10.40;;;3.28;;
4569;SDS011;2297;51.442;6.996;2023-08-07T11:59:08;8.55;;;3.05;;
4569;SDS011;2297;51.442;6.996;2023-08-07T12:01:37;12.05;;;4.38;;
4569;SDS011;2297;51.442;6.996;2023-08-07T12:04:08;13.77;;;4.07;;
4569;SDS011;2297;51.442;6.996;2023-08-07T12:06:37;8.93;;;3.33;;
4569;SDS011;2297;51.442;6.996;2023-08-07T12:09:08;9.32;;;3.92;;
4569;SDS011;2297;51.442;6.996;2023-08-07T12:11:37;8.70;;;3.20;;
4569;SDS011;2297;51.442;6.996;2023-08-07T12:14:04;9.20;;;3.45;;
4569;SDS011;2297;51.442;6.996;2023-08-07T12:16:32;5.13;;;2.45;;
4569;SDS011;2297;51.442;6.996;2023-08-07T12:18:59;7.72;;;2.70;;
4569;SDS011;2297;51.442;6.996;2023-08-07T12:21:26;9.40;;;2.67;;
4569;SDS011;2297;51.442;6.996;2023-08-07T12:23:55;10.20;;;3.00;;
4569;SDS011;2297;51.442;6.996;2023-08-07T12:26:23;21.70;;;3.15;;
4569;SDS011;2297;51.442;6.996;2023-08-07T12:28:50;4.15;;;2.00;;
4569;SDS011;2297;51.442;6.996;2023-08-07T12:31:17;5.75;;;2.55;;
4569;SDS011;2297;51.442;6.996;2023-08-07T12:33:44;8.43;;;2.55;;
4569;SDS011;2297;51.442;6.996;2023-08-07T12:36:11;9.65;;;2.47;;
4569;SDS011;2297;51.442;6.996;2023-08-07T12:55:14;10.02;;;2.38;;
4569;SDS011;2297;51.442;6.996;2023-08-07T12:57:41;7.43;;;2.42;;
4569;SDS011;2297;51.442;6.996;2023-08-07T13:00:09;5.93;;;2.60;;
4569;SDS011;2297;51.442;6.996;2023-08-07T13:09:23;6.90;;;2.65;;
4569;SDS011;2297;51.442;6.996;2023-08-07T13:11:51;9.40;;;3.10;;
4569;SDS011;2297;51.442;6.996;2023-08-07T13:14:18;5.25;;;2.38;;
4569;SDS011;2297;51.442;6.996;2023-08-07T13:16:45;7.18;;;2.35;;
4569;SDS011;2297;51.442;6.996;2023-08-07T13:19:11;9.68;;;2.70;;
4569;SDS011;2297;51.442;6.996;2023-08-07T13:21:38;7.07;;;2.10;;
4569;SDS011;2297;51.442;6.996;2023-08-07T13:24:05;9.18;;;2.60;;
4569;SDS011;2297;51.442;6.996;2023-08-07T13:26:31;4.43;;;2.38;;
4569;SDS011;2297;51.442;6.996;2023-08-07T13:28:59;6.82;;;2.60;;
4569;SDS011;2297;51.442;6.996;2023-08-07T13:31:26;5.72;;;2.63;;
4569;SDS011;2297;51.442;6.996;2023-08-07T13:33:53;9.18;;;2.22;;
4569;SDS011;2297;51.442;6.996;2023-08-07T13:36:19;6.32;;;2.13;;
4569;SDS011;2297;51.442;6.996;2023-08-07T13:38:46;9.50;;;2.50;;
4569;SDS011;2297;51.442;6.996;2023-08-07T13:41:13;5.35;;;1.73;;
4569;SDS011;2297;51.442;6.996;2023-08-07T13:43:39;9.32;;;2.25;;
4569;SDS011;2297;51.442;6.996;2023-08-07T13:46:07;4.95;;;1.98;;
4569;SDS011;2297;51.442;6.996;2023-08-07T13:48:34;4.90;;;1.90;;
4569;SDS011;2297;51.442;6.996;2023-08-07T13:51:01;2.13;;;1.52;;
4569;SDS011;2297;51.442;6.996;2023-08-07T13:53:32;6.43;;;2.00;;
4569;SDS011;2297;51.442;6.996;2023-08-07T13:55:58;3.22;;;1.60;;
4569;SDS011;2297;51.442;6.996;2023-08-07T13:58:25;6.05;;;1.77;;
4569;SDS011;2297;51.442;6.996;2023-08-07T14:00:52;10.52;;;2.55;;
4569;SDS011;2297;51.442;6.996;2023-08-07T14:03:20;6.82;;;2.00;;
4569;SDS011;2297;51.442;6.996;2023-08-07T14:05:47;7.70;;;2.05;;
4569;SDS011;2297;51.442;6.996;2023-08-07T14:08:15;4.45;;;1.90;;
4569;SDS011;2297;51.442;6.996;2023-08-07T14:10:41;5.65;;;1.90;;
4569;SDS011;2297;51.442;6.996;2023-08-07T14:13:08;4.88;;;1.85;;
4569;SDS011;2297;51.442;6.996;2023-08-07T14:15:36;5.38;;;2.47;;
4569;SDS011;2297;51.442;6.996;2023-08-07T14:18:03;6.15;;;2.03;;
4569;SDS011;2297;51.442;6.996;2023-08-07T14:20:31;6.30;;;1.92;;
4569;SDS011;2297;51.442;6.996;2023-08-07T14:22:58;4.88;;;1.60;;
4569;SDS011;2297;51.442;6.996;2023-08-07T14:25:25;7.47;;;2.00;;
4569;SDS011;2297;51.442;6.996;2023-08-07T14:27:51;6.30;;;2.10;;
4569;SDS011;2297;51.442;6.996;2023-08-07T14:30:19;4.50;;;1.70;;
4569;SDS011;2297;51.442;6.996;2023-08-07T14:36:09;6.55;;;2.10;;
4569;SDS011;2297;51.442;6.996;2023-08-07T14:38:35;8.13;;;2.33;;
4569;SDS011;2297;51.442;6.996;2023-08-07T14:41:02;5.43;;;2.28;;
4569;SDS011;2297;51.442;6.996;2023-08-07T14:43:29;6.57;;;1.75;;
4569;SDS011;2297;51.442;6.996;2023-08-07T14:45:56;4.35;;;1.90;;
4569;SDS011;2297;51.442;6.996;2023-08-07T14:48:23;3.10;;;1.65;;
4569;SDS011;2297;51.442;6.996;2023-08-07T14:50:52;3.55;;;2.05;;
4569;SDS011;2297;51.442;6.996;2023-08-07T14:53:22;3.78;;;1.60;;
4569;SDS011;2297;51.442;6.996;2023-08-07T14:55:50;4.10;;;1.80;;
4569;SDS011;2297;51.442;6.996;2023-08-07T14:58:17;2.58;;;1.55;;
4569;SDS011;2297;51.442;6.996;2023-08-07T15:00:44;3.70;;;1.92;;
4569;SDS011;2297;51.442;6.996;2023-08-07T15:03:11;1.63;;;1.40;;
4569;SDS011;2297;51.442;6.996;2023-08-07T15:05:37;4.63;;;1.90;;
4569;SDS011;2297;51.442;6.996;2023-08-07T15:08:04;3.25;;;1.50;;
4569;SDS011;2297;51.442;6.996;2023-08-07T15:10:32;3.00;;;1.45;;
4569;SDS011;2297;51.442;6.996;2023-08-07T15:13:01;4.45;;;1.80;;
4569;SDS011;2297;51.442;6.996;2023-08-07T15:15:28;3.50;;;1.50;;
4569;SDS011;2297;51.442;6.996;2023-08-07T15:17:55;3.47;;;1.65;;
4569;SDS011;2297;51.442;6.996;2023-08-07T15:20:21;4.82;;;1.60;;
4569;SDS011;2297;51.442;6.996;2023-08-07T15:22:49;3.65;;;1.60;;
4569;SDS011;2297;51.442;6.996;2023-08-07T15:25:16;4.45;;;1.83;;
4569;SDS011;2297;51.442;6.996;2023-08-07T15:27:44;3.80;;;1.60;;
4569;SDS011;2297;51.442;6.996;2023-08-07T15:30:11;3.95;;;1.73;;
4569;SDS011;2297;51.442;6.996;2023-08-07T15:32:38;3.13;;;1.50;;
4569;SDS011;2297;51.442;6.996;2023-08-07T15:35:06;5.13;;;1.52;;
4569;SDS011;2297;51.442;6.996;2023-08-07T15:37:33;4.85;;;2.00;;
4569;SDS011;2297;51.442;6.996;2023-08-07T15:40:00;3.70;;;1.65;;
4569;SDS011;2297;51.442;6.996;2023-08-07T15:42:27;5.13;;;1.70;;
4569;SDS011;2297;51.442;6.996;2023-08-07T15:44:55;4.63;;;1.90;;
4569;SDS011;2297;51.442;6.996;2023-08-07T15:47:22;4.15;;;2.05;;
4569;SDS011;2297;51.442;6.996;2023-08-07T15:49:48;6.25;;;1.67;;
4569;SDS011;2297;51.442;6.996;2023-08-07T15:52:15;4.72;;;1.77;;
4569;SDS011;2297;51.442;6.996;2023-08-07T15:54:43;3.80;;;2.20;;
4569;SDS011;2297;51.442;6.996;2023-08-07T15:57:11;4.80;;;1.73;;
4569;SDS011;2297;51.442;6.996;2023-08-07T15:59:38;4.25;;;1.70;;
4569;SDS011;2297;51.442;6.996;2023-08-07T16:02:06;3.65;;;1.58;;
4569;SDS011;2297;51.442;6.996;2023-08-07T16:04:34;3.38;;;1.60;;
4569;SDS011;2297;51.442;6.996;2023-08-07T16:07:00;5.93;;;2.00;;
4569;SDS011;2297;51.442;6.996;2023-08-07T16:09:28;4.43;;;1.88;;
4569;SDS011;2297;51.442;6.996;2023-08-07T16:11:55;2.20;;;1.63;;
4569;SDS011;2297;51.442;6.996;2023-08-07T16:14:22;5.70;;;2.00;;
4569;SDS011;2297;51.442;6.996;2023-08-07T16:16:49;6.63;;;2.17;;
4569;SDS011;2297;51.442;6.996;2023-08-07T16:19:17;5.03;;;1.90;;
4569;SDS011;2297;51.442;6.996;2023-08-07T16:21:44;2.78;;;1.55;;
4569;SDS011;2297;51.442;6.996;2023-08-07T16:24:10;11.05;;;2.45;;
4569;SDS011;2297;51.442;6.996;2023-08-07T16:26:37;4.85;;;1.70;;
4569;SDS011;2297;51.442;6.996;2023-08-07T16:29:04;7.28;;;2.05;;